createdAt,value
2022-10-05T00:00:28.105Z,4.43
2022-10-05T00:05:46.930Z,6.30
2022-10-05T00:08:18.638Z,6.63
2022-10-05T00:10:47.207Z,5.88
2022-10-05T00:13:21.237Z,7.13
2022-10-05T00:15:49.522Z,5.65
2022-10-05T00:18:21.061Z,8.68
2022-10-05T00:20:49.151Z,8.18
2022-10-05T00:23:41.361Z,5.93
2022-10-05T00:26:16.981Z,6.32
2022-10-05T00:28:45.287Z,4.20
2022-10-05T00:31:17.608Z,6.15
2022-10-05T00:33:44.484Z,8.95
2022-10-05T00:36:11.462Z,6.07
2022-10-05T00:38:38.607Z,7.47
2022-10-05T00:41:14.447Z,8.98
2022-10-05T00:44:05.057Z,4.93
2022-10-05T00:46:49.669Z,5.43
2022-10-05T00:49:45.462Z,6.20
2022-10-05T00:52:37.210Z,5.95
2022-10-05T00:55:17.913Z,5.68
2022-10-05T00:58:01.144Z,4.97
2022-10-05T01:00:35.220Z,7.80
2022-10-05T01:03:14.071Z,5.68
2022-10-05T01:09:14.596Z,8.35
2022-10-05T01:11:51.215Z,9.75
2022-10-05T01:14:27.743Z,5.30
2022-10-05T01:17:06.431Z,5.47
2022-10-05T01:20:06.961Z,6.78
2022-10-05T01:23:11.272Z,8.93
2022-10-05T01:25:52.332Z,5.25
2022-10-05T01:28:28.356Z,4.47
2022-10-05T01:31:08.776Z,4.45
2022-10-05T01:33:46.272Z,6.47
2022-10-05T01:36:26.373Z,9.18
2022-10-05T01:39:07.341Z,4.93
2022-10-05T01:41:44.159Z,5.93
2022-10-05T01:44:17.573Z,6.85
2022-10-05T01:46:55.807Z,5.38
2022-10-05T01:49:37.397Z,5.05
2022-10-05T01:52:27.611Z,5.60
2022-10-05T01:55:15.384Z,5.47
2022-10-05T01:58:00.671Z,6.32
2022-10-05T02:00:35.099Z,7.47
2022-10-05T02:03:10.340Z,8.23
2022-10-05T02:05:45.009Z,5.30
2022-10-05T02:08:21.014Z,6.65
2022-10-05T02:10:55.356Z,5.82
2022-10-05T02:13:33.916Z,7.28
2022-10-05T02:16:09.936Z,6.20
2022-10-05T02:18:46.704Z,3.78
2022-10-05T02:21:13.756Z,4.88
2022-10-05T02:23:45.747Z,6.75
2022-10-05T02:26:13.697Z,8.20
2022-10-05T02:28:48.209Z,5.93
2022-10-05T02:31:23.864Z,7.88
2022-10-05T02:33:50.811Z,6.32
2022-10-05T02:36:32.645Z,6.65
2022-10-05T02:39:13.469Z,5.57
2022-10-05T02:41:53.126Z,5.00
2022-10-05T02:44:33.236Z,7.80
2022-10-05T02:47:15.231Z,5.18
2022-10-05T02:49:50.389Z,6.63
2022-10-05T02:52:28.881Z,7.32
2022-10-05T02:55:08.136Z,12.15
2022-10-05T02:57:41.968Z,6.18
2022-10-05T03:00:15.218Z,4.65
2022-10-05T03:02:55.641Z,7.18
2022-10-05T03:05:27.777Z,6.47
2022-10-05T03:08:02.154Z,6.95
2022-10-05T03:10:39.497Z,6.93
2022-10-05T03:13:20.971Z,5.18
2022-10-05T03:16:10.782Z,7.90
2022-10-05T03:18:59.010Z,5.85
2022-10-05T03:21:46.649Z,6.53
2022-10-05T03:24:41.062Z,4.25
2022-10-05T03:27:22.393Z,7.45
2022-10-05T03:30:04.202Z,6.05
2022-10-05T03:32:54.015Z,4.95
2022-10-05T03:35:32.492Z,7.07
2022-10-05T03:38:15.135Z,6.38
2022-10-05T03:40:50.499Z,3.95
2022-10-05T03:43:54.689Z,4.82
2022-10-05T03:46:38.950Z,4.70
2022-10-05T03:49:14.569Z,6.25
2022-10-05T03:51:49.448Z,6.53
2022-10-05T03:54:24.350Z,5.05
2022-10-05T03:56:57.116Z,7.18
2022-10-05T03:59:32.731Z,6.63
2022-10-05T04:02:06.289Z,7.25
2022-10-05T04:04:39.792Z,4.78
2022-10-05T04:07:24.629Z,5.07
2022-10-05T04:09:54.729Z,5.22
2022-10-05T04:12:26.858Z,6.55
2022-10-05T04:15:02.948Z,5.28
2022-10-05T04:17:37.549Z,9.13
2022-10-05T04:20:15.195Z,10.00
2022-10-05T04:23:03.440Z,4.97
2022-10-05T04:25:39.506Z,6.82
2022-10-05T04:28:14.932Z,11.68
2022-10-05T04:30:47.772Z,6.38
2022-10-05T04:33:14.996Z,5.70
2022-10-05T04:36:04.642Z,9.43
2022-10-05T04:38:51.902Z,6.22
2022-10-05T04:41:55.775Z,5.45
2022-10-05T04:44:57.091Z,8.32
2022-10-05T04:47:56.333Z,7.32
2022-10-05T04:50:44.133Z,7.82
2022-10-05T04:53:27.113Z,9.07
2022-10-05T04:56:01.815Z,6.90
2022-10-05T04:59:03.874Z,6.68
2022-10-05T05:02:00.067Z,8.18
2022-10-05T05:05:12.504Z,9.95
2022-10-05T05:07:49.360Z,6.10
2022-10-05T05:11:04.544Z,7.72
2022-10-05T05:13:55.095Z,5.53
2022-10-05T05:19:41.728Z,5.20
2022-10-05T05:22:25.406Z,7.95
2022-10-05T05:25:19.191Z,5.70
2022-10-05T05:27:54.500Z,6.43
2022-10-05T05:30:32.241Z,7.20
2022-10-05T05:33:19.275Z,8.18
2022-10-05T05:36:23.400Z,8.18
2022-10-05T05:39:21.737Z,8.73
2022-10-05T05:42:00.408Z,5.68
2022-10-05T05:44:38.932Z,8.13
2022-10-05T05:47:19.378Z,9.20
2022-10-05T05:50:08.636Z,5.47
2022-10-05T05:52:42.851Z,6.82
2022-10-05T05:55:20.159Z,5.50
2022-10-05T05:57:53.776Z,9.05
2022-10-05T06:00:28.365Z,7.90
2022-10-05T06:03:08.981Z,6.68
2022-10-05T06:05:44.345Z,5.35
2022-10-05T06:08:19.800Z,6.47
2022-10-05T06:10:57.475Z,6.30
2022-10-05T06:13:32.552Z,6.35
2022-10-05T06:16:12.927Z,8.93
2022-10-05T06:18:46.361Z,9.60
2022-10-05T06:21:22.628Z,10.18
2022-10-05T06:23:59.098Z,5.97
2022-10-05T06:26:46.156Z,7.13
2022-10-05T06:29:22.585Z,9.38
2022-10-05T06:32:06.397Z,5.70
2022-10-05T06:34:58.802Z,7.95
2022-10-05T06:37:47.465Z,5.95
2022-10-05T06:40:30.220Z,7.50
2022-10-05T06:43:19.468Z,5.75
2022-10-05T06:46:12.670Z,9.15
2022-10-05T06:49:22.692Z,7.50
2022-10-05T06:52:25.580Z,8.75
2022-10-05T06:55:18.037Z,9.32
2022-10-05T06:58:05.101Z,8.10
2022-10-05T07:00:41.944Z,8.30
2022-10-05T07:03:23.976Z,6.93
2022-10-05T07:06:06.803Z,8.77
2022-10-05T07:09:39.309Z,7.85
2022-10-05T07:12:36.842Z,12.90
2022-10-05T07:15:29.058Z,8.52
2022-10-05T07:18:22.268Z,4.97
2022-10-05T07:20:59.570Z,6.45
2022-10-05T07:23:45.865Z,9.35
2022-10-05T07:26:23.137Z,9.00
2022-10-05T07:29:09.187Z,8.88
2022-10-05T07:31:49.241Z,7.32
2022-10-05T07:34:35.051Z,7.68
2022-10-05T07:37:09.250Z,8.57
2022-10-05T07:40:00.560Z,7.18
2022-10-05T07:42:51.549Z,8.15
2022-10-05T07:45:29.467Z,8.52
2022-10-05T07:48:05.608Z,8.00
2022-10-05T07:50:40.354Z,6.47
2022-10-05T07:53:23.124Z,6.95
2022-10-05T07:55:54.104Z,8.30
2022-10-05T07:58:28.699Z,7.40
2022-10-05T08:01:07.920Z,7.60
2022-10-05T08:03:48.694Z,7.65
2022-10-05T08:06:46.619Z,10.63
2022-10-05T08:09:32.914Z,9.30
2022-10-05T08:12:23.663Z,8.82
2022-10-05T08:14:57.192Z,7.10
2022-10-05T08:17:39.613Z,11.38
2022-10-05T08:22:58.620Z,7.88
2022-10-05T08:25:40.921Z,8.10
2022-10-05T08:28:18.597Z,7.43
2022-10-05T08:30:59.106Z,8.02
2022-10-05T08:33:29.481Z,7.95
2022-10-05T08:36:07.513Z,9.18
2022-10-05T08:38:35.200Z,7.65
2022-10-05T08:41:47.121Z,7.53
2022-10-05T08:44:56.600Z,7.97
2022-10-05T08:47:48.808Z,6.93
2022-10-05T08:50:34.862Z,10.00
2022-10-05T08:53:20.386Z,10.15
2022-10-05T08:56:07.947Z,8.27
2022-10-05T08:59:06.474Z,7.30
2022-10-05T09:01:56.054Z,8.38
2022-10-05T09:04:41.038Z,7.03
2022-10-05T09:07:27.161Z,9.30
2022-10-05T09:10:55.727Z,8.40
2022-10-05T09:14:28.248Z,8.52
2022-10-05T09:17:42.856Z,8.30
2022-10-05T09:20:29.581Z,9.38
2022-10-05T09:23:12.279Z,8.48
2022-10-05T09:25:56.211Z,7.57
2022-10-05T09:28:40.879Z,6.75
2022-10-05T09:31:41.756Z,10.20
2022-10-05T09:34:47.738Z,7.78
2022-10-05T09:37:35.812Z,9.75
2022-10-05T09:40:52.401Z,6.93
2022-10-05T09:44:00.033Z,7.43
2022-10-05T09:46:53.401Z,8.00
2022-10-05T09:49:52.980Z,6.63
2022-10-05T09:52:53.540Z,6.88
2022-10-05T09:55:53.091Z,8.27
2022-10-05T09:59:00.229Z,8.30
2022-10-05T10:01:51.792Z,5.13
2022-10-05T10:04:41.967Z,9.45
2022-10-05T10:07:51.529Z,8.57
2022-10-05T10:10:55.849Z,5.43
2022-10-05T10:14:02.725Z,6.30
2022-10-05T10:16:55.141Z,5.10
2022-10-05T10:23:00.597Z,5.93
2022-10-05T10:26:10.143Z,4.93
2022-10-05T10:29:18.047Z,5.05
2022-10-05T10:32:07.932Z,5.60
2022-10-05T10:35:17.101Z,6.25
2022-10-05T10:38:33.782Z,5.20
2022-10-05T10:41:32.224Z,5.57
2022-10-05T10:44:26.354Z,6.40
2022-10-05T10:47:21.439Z,8.05
2022-10-05T10:50:43.603Z,6.97
2022-10-05T10:54:01.223Z,5.22
2022-10-05T10:56:58.141Z,15.55
2022-10-05T11:00:05.651Z,5.68
2022-10-05T11:03:16.253Z,6.15
2022-10-05T11:06:21.115Z,4.55
2022-10-05T11:09:45.345Z,7.00
2022-10-05T11:12:59.895Z,7.00
2022-10-05T11:16:20.846Z,6.68
2022-10-05T11:19:21.720Z,7.78
2022-10-05T11:22:16.912Z,5.63
2022-10-05T11:25:21.535Z,6.38
2022-10-05T11:28:29.729Z,4.85
2022-10-05T11:31:43.524Z,5.90
2022-10-05T11:34:49.641Z,6.18
2022-10-05T11:38:03.177Z,6.22
2022-10-05T11:41:19.727Z,7.38
2022-10-05T11:44:12.810Z,6.07
2022-10-05T11:46:53.612Z,8.32
2022-10-05T11:49:35.977Z,6.72
2022-10-05T11:52:12.972Z,6.40
2022-10-05T11:55:15.616Z,6.95
2022-10-05T11:57:51.433Z,7.15
2022-10-05T12:00:21.224Z,6.65
2022-10-05T12:03:27.226Z,5.38
2022-10-05T12:06:20.145Z,6.25
2022-10-05T12:09:03.843Z,4.47
2022-10-05T12:11:57.011Z,8.63
2022-10-05T12:14:39.663Z,7.55
2022-10-05T12:17:22.241Z,5.18
2022-10-05T12:19:54.555Z,5.63
2022-10-05T12:22:31.392Z,5.22
2022-10-05T12:25:13.862Z,6.28
2022-10-05T12:27:45.520Z,5.68
2022-10-05T12:30:18.181Z,6.53
2022-10-05T12:33:01.910Z,4.43
2022-10-05T12:35:53.517Z,5.22
2022-10-05T12:38:28.323Z,4.80
2022-10-05T12:41:06.447Z,5.50
2022-10-05T12:43:45.531Z,6.55
2022-10-05T12:46:30.233Z,4.15
2022-10-05T12:49:14.624Z,4.32
2022-10-05T12:51:48.761Z,3.03
2022-10-05T12:54:32.023Z,6.22
2022-10-05T12:57:10.904Z,4.30
2022-10-05T12:59:43.735Z,6.60
2022-10-05T13:02:23.595Z,4.50
2022-10-05T13:04:59.646Z,3.92
2022-10-05T13:07:46.166Z,3.42
2022-10-05T13:10:36.040Z,4.85
2022-10-05T13:13:29.353Z,4.07
2022-10-05T13:16:06.856Z,3.10
2022-10-05T13:18:51.379Z,4.88
2022-10-05T13:21:26.839Z,3.95
2022-10-05T13:24:03.723Z,2.35
2022-10-05T13:26:37.109Z,3.60
2022-10-05T13:29:19.973Z,3.45
2022-10-05T13:31:53.869Z,7.43
2022-10-05T13:34:33.625Z,2.47
2022-10-05T13:37:17.359Z,4.07
2022-10-05T13:40:00.735Z,5.03
2022-10-05T13:42:37.590Z,4.75
2022-10-05T13:45:16.958Z,4.25
2022-10-05T13:48:08.817Z,4.72
2022-10-05T13:50:45.102Z,5.32
2022-10-05T13:53:21.653Z,4.78
2022-10-05T13:55:58.904Z,3.25
2022-10-05T13:58:39.290Z,2.90
2022-10-05T14:01:15.963Z,5.37
2022-10-05T14:04:05.945Z,4.20
2022-10-05T14:06:38.966Z,4.47
2022-10-05T14:09:14.077Z,2.65
2022-10-05T14:11:50.926Z,3.22
2022-10-05T14:14:27.156Z,4.93
2022-10-05T14:16:56.824Z,3.65
2022-10-05T14:19:27.562Z,4.10
2022-10-05T14:22:01.480Z,5.60
2022-10-05T14:24:46.643Z,8.38
2022-10-05T14:27:24.276Z,3.25
2022-10-05T14:30:02.928Z,3.42
2022-10-05T14:32:32.955Z,4.20
2022-10-05T14:35:13.584Z,2.38
2022-10-05T14:37:50.946Z,3.30
2022-10-05T14:40:32.249Z,4.25
2022-10-05T14:43:16.864Z,2.50
2022-10-05T14:45:56.434Z,3.50
2022-10-05T14:48:25.006Z,3.40
2022-10-05T14:50:55.614Z,3.67
2022-10-05T14:53:24.332Z,4.05
2022-10-05T14:56:38.783Z,3.65
2022-10-05T14:59:29.356Z,6.18
2022-10-05T15:02:19.459Z,4.28
2022-10-05T15:05:00.452Z,4.68
2022-10-05T15:07:33.725Z,3.25
2022-10-05T15:10:28.497Z,4.40
2022-10-05T15:13:11.317Z,4.05
2022-10-05T15:15:49.233Z,3.13
2022-10-05T15:18:32.478Z,4.80
2022-10-05T15:21:26.314Z,3.25
2022-10-05T15:23:59.850Z,9.90
2022-10-05T15:26:46.090Z,6.28
2022-10-05T15:29:38.119Z,5.57
2022-10-05T15:32:22.793Z,5.10
2022-10-05T15:35:17.336Z,2.75
2022-10-05T15:37:53.706Z,3.80
2022-10-05T15:40:30.462Z,5.30
2022-10-05T15:43:04.694Z,6.88
2022-10-05T15:45:35.623Z,3.40
2022-10-05T15:48:16.207Z,5.72
2022-10-05T15:50:52.468Z,4.53
2022-10-05T15:53:31.420Z,4.53
2022-10-05T15:56:04.313Z,4.30
2022-10-05T16:01:51.750Z,3.13
2022-10-05T16:04:29.790Z,5.78
2022-10-05T16:07:01.005Z,2.97
2022-10-05T16:09:48.314Z,10.75
2022-10-05T16:12:30.981Z,5.10
2022-10-05T16:15:16.823Z,5.00
2022-10-05T16:18:08.785Z,3.75
2022-10-05T16:20:48.546Z,5.63
2022-10-05T16:23:34.158Z,4.97
2022-10-05T16:26:19.788Z,3.75
2022-10-05T16:29:02.927Z,4.65
2022-10-05T16:31:39.234Z,4.78
2022-10-05T16:34:29.555Z,5.43
2022-10-05T16:37:07.094Z,3.42
2022-10-05T16:39:58.665Z,2.85
2022-10-05T16:42:44.152Z,5.03
2022-10-05T16:45:29.788Z,4.00
2022-10-05T16:48:09.758Z,3.35
2022-10-05T16:50:49.151Z,5.80
2022-10-05T16:53:23.632Z,4.82
2022-10-05T16:55:59.796Z,4.00
2022-10-05T16:58:46.525Z,3.45
2022-10-05T17:01:36.205Z,3.83
2022-10-05T17:04:23.226Z,4.15
2022-10-05T17:07:21.118Z,5.95
2022-10-05T17:10:22.499Z,3.60
2022-10-05T17:13:07.211Z,3.03
2022-10-05T17:15:56.584Z,4.03
2022-10-05T17:18:50.720Z,3.60
2022-10-05T17:21:26.357Z,5.85
2022-10-05T17:23:58.544Z,3.85
2022-10-05T17:26:56.135Z,5.93
2022-10-05T17:29:47.516Z,7.30
2022-10-05T17:32:57.056Z,2.83
2022-10-05T17:35:50.182Z,5.32
2022-10-05T17:38:22.801Z,5.63
2022-10-05T17:41:23.019Z,6.43
2022-10-05T17:44:23.509Z,3.20
2022-10-05T17:46:57.547Z,3.03
2022-10-05T17:49:56.447Z,5.13
2022-10-05T17:52:26.616Z,3.28
2022-10-05T17:55:21.928Z,2.70
2022-10-05T17:57:49.048Z,3.60
2022-10-05T18:00:38.900Z,6.18
2022-10-05T18:03:41.071Z,6.10
2022-10-05T18:06:45.191Z,3.63
2022-10-05T18:09:34.561Z,4.05
2022-10-05T18:12:45.370Z,4.38
2022-10-05T18:15:44.673Z,5.10
2022-10-05T18:18:56.293Z,4.28
2022-10-05T18:21:32.451Z,7.25
2022-10-05T18:24:36.217Z,4.80
2022-10-05T18:27:32.710Z,3.47
2022-10-05T18:30:14.336Z,3.05
2022-10-05T18:33:14.049Z,2.65
2022-10-05T18:35:58.143Z,4.78
2022-10-05T18:38:44.002Z,2.72
2022-10-05T18:41:31.057Z,2.25
2022-10-05T18:44:21.391Z,4.68
2022-10-05T18:47:00.088Z,5.57
2022-10-05T18:49:45.405Z,4.45
2022-10-05T18:52:24.984Z,4.93
2022-10-05T18:55:05.255Z,5.10
2022-10-05T18:57:55.570Z,4.32
2022-10-05T19:00:25.248Z,1.58
2022-10-05T19:02:58.552Z,2.25
2022-10-05T19:05:48.956Z,3.40
2022-10-05T19:08:31.038Z,5.45
2022-10-05T19:11:12.961Z,6.28
2022-10-05T19:13:52.165Z,5.88
2022-10-05T19:16:45.477Z,2.97
2022-10-05T19:19:38.197Z,3.65
2022-10-05T19:22:23.491Z,4.97
2022-10-05T19:25:18.081Z,3.15
2022-10-05T19:28:02.225Z,3.75
2022-10-05T19:30:48.613Z,4.75
2022-10-05T19:33:33.000Z,2.72
2022-10-05T19:36:25.393Z,2.70
2022-10-05T19:41:48.759Z,5.15
2022-10-05T19:44:29.077Z,2.92
2022-10-05T19:47:01.151Z,3.95
2022-10-05T19:52:13.424Z,3.53
2022-10-05T19:54:41.718Z,8.40
2022-10-05T19:57:16.724Z,2.65
2022-10-05T19:59:46.903Z,3.20
2022-10-05T20:02:16.676Z,2.75
2022-10-05T20:04:46.787Z,4.15
2022-10-05T20:07:16.191Z,2.60
2022-10-05T20:09:58.154Z,2.40
2022-10-05T20:12:48.890Z,2.35
2022-10-05T20:15:20.520Z,2.30
2022-10-05T20:17:47.729Z,4.05
2022-10-05T20:20:29.056Z,3.85
2022-10-05T20:23:24.071Z,4.63
2022-10-05T20:25:51.371Z,4.10
2022-10-05T20:28:31.964Z,3.95
2022-10-05T20:30:59.504Z,2.17
2022-10-05T20:33:26.461Z,2.35
2022-10-05T20:35:53.401Z,3.92
2022-10-05T20:38:20.762Z,2.10
2022-10-05T20:40:47.915Z,4.55
2022-10-05T20:43:15.251Z,3.40
2022-10-05T20:45:43.432Z,4.05
2022-10-05T20:48:10.360Z,6.15
2022-10-05T20:50:37.238Z,6.55
2022-10-05T20:53:08.385Z,3.53
2022-10-05T20:55:38.005Z,2.10
2022-10-05T20:58:04.750Z,2.35
2022-10-05T21:00:34.057Z,2.53
2022-10-05T21:03:02.827Z,3.60
2022-10-05T21:05:29.671Z,3.75
2022-10-05T21:07:56.614Z,2.97
2022-10-05T21:10:23.543Z,2.30
2022-10-05T21:12:50.460Z,3.85
2022-10-05T21:15:19.420Z,4.72
2022-10-05T21:17:46.309Z,3.60
2022-10-05T21:20:14.753Z,4.80
2022-10-05T21:22:41.758Z,2.47
2022-10-05T21:25:09.414Z,2.88
2022-10-05T21:27:36.111Z,3.35
2022-10-05T21:30:03.198Z,3.67
2022-10-05T21:32:41.841Z,3.03
2022-10-05T21:35:12.356Z,2.50
2022-10-05T21:37:40.672Z,3.38
2022-10-05T21:40:08.573Z,4.35
2022-10-05T21:42:35.452Z,4.57
2022-10-05T21:45:02.318Z,2.72
2022-10-05T21:47:29.322Z,4.15
2022-10-05T21:49:58.840Z,1.67
2022-10-05T21:52:26.151Z,6.53
2022-10-05T21:54:54.370Z,3.85
2022-10-05T21:57:21.647Z,4.32
2022-10-05T21:59:48.686Z,4.93
2022-10-05T22:02:15.380Z,2.58
2022-10-05T22:04:42.383Z,3.60
2022-10-05T22:07:17.420Z,2.63
2022-10-05T22:09:45.111Z,2.90
2022-10-05T22:12:13.647Z,2.88
2022-10-05T22:14:40.755Z,2.75
2022-10-05T22:17:14.509Z,2.55
2022-10-05T22:19:41.397Z,4.78
2022-10-05T22:22:11.800Z,2.70
2022-10-05T22:24:38.964Z,1.67
2022-10-05T22:27:06.002Z,2.10
2022-10-05T22:29:34.434Z,6.35
2022-10-05T22:32:01.248Z,3.80
2022-10-05T22:34:28.244Z,4.40
2022-10-05T22:36:55.159Z,2.15
2022-10-05T22:39:21.977Z,2.50
2022-10-05T22:41:48.797Z,6.10
2022-10-05T22:44:15.678Z,2.47
2022-10-05T22:46:43.825Z,1.63
2022-10-05T22:49:10.733Z,3.13
2022-10-05T22:51:37.523Z,5.85
2022-10-05T22:54:05.125Z,3.72
2022-10-05T22:56:32.000Z,1.52
2022-10-05T22:58:58.826Z,2.63
2022-10-05T23:01:28.922Z,4.05
2022-10-05T23:03:59.745Z,3.30
2022-10-05T23:06:26.913Z,1.30
2022-10-05T23:08:57.957Z,1.38
2022-10-05T23:11:27.063Z,4.50
2022-10-05T23:13:55.804Z,1.48
2022-10-05T23:16:25.734Z,0.77
2022-10-05T23:18:54.151Z,1.15
2022-10-05T23:21:25.199Z,1.23
2022-10-05T23:23:52.027Z,1.98
2022-10-05T23:26:22.945Z,4.03
2022-10-05T23:28:50.233Z,2.72
2022-10-05T23:31:20.551Z,1.02
2022-10-05T23:33:48.373Z,1.15
2022-10-05T23:36:18.605Z,0.77
2022-10-05T23:38:47.356Z,0.93
2022-10-05T23:41:14.973Z,1.88
2022-10-05T23:43:42.589Z,1.45
2022-10-05T23:46:10.369Z,1.65
2022-10-05T23:48:37.345Z,4.00
2022-10-05T23:51:05.559Z,1.30
2022-10-05T23:53:32.631Z,1.17
2022-10-05T23:56:01.039Z,0.50
2022-10-05T23:58:28.358Z,3.90
